createdAt,value
2023-12-02T00:02:15.674Z,-2.17
2023-12-02T00:07:18.775Z,-2.17
2023-12-02T00:12:20.622Z,-2.18
2023-12-02T00:17:22.355Z,-2.16
2023-12-02T00:22:25.362Z,-2.19
2023-12-02T00:27:26.992Z,-2.20
2023-12-02T00:32:29.909Z,-2.22
2023-12-02T00:37:33.029Z,-2.24
2023-12-02T00:42:35.343Z,-2.23
2023-12-02T00:47:37.054Z,-2.27
2023-12-02T00:52:40.023Z,-2.27
2023-12-02T00:57:42.410Z,-2.29
2023-12-02T01:02:44.020Z,-2.31
2023-12-02T01:07:47.040Z,-2.31
2023-12-02T01:12:48.611Z,-2.34
2023-12-02T01:17:50.278Z,-2.33
2023-12-02T01:22:53.260Z,-2.34
2023-12-02T01:27:54.868Z,-2.37
2023-12-02T01:32:56.581Z,-2.42
2023-12-02T01:37:59.465Z,-2.42
2023-12-02T01:43:02.847Z,-2.43
2023-12-02T01:48:04.938Z,-2.49
2023-12-02T01:53:07.998Z,-2.49
2023-12-02T01:58:09.728Z,-2.51
2023-12-02T02:03:11.441Z,-2.53
2023-12-02T02:08:14.507Z,-2.57
2023-12-02T02:13:16.229Z,-2.62
2023-12-02T02:18:17.923Z,-2.60
2023-12-02T02:23:22.162Z,-2.65
2023-12-02T02:28:25.308Z,-2.62
2023-12-02T02:33:26.956Z,-2.61
2023-12-02T02:38:29.954Z,-2.64
2023-12-02T02:43:31.477Z,-2.61
2023-12-02T02:48:33.130Z,-2.65
2023-12-02T02:53:36.076Z,-2.67
2023-12-02T02:58:37.656Z,-2.67
2023-12-02T03:03:39.207Z,-2.71
2023-12-02T03:08:42.193Z,-2.75
2023-12-02T03:13:43.868Z,-2.80
2023-12-02T03:18:45.567Z,-2.81
2023-12-02T03:23:50.666Z,-2.81
2023-12-02T03:28:52.405Z,-2.82
2023-12-02T03:33:53.990Z,-2.79
2023-12-02T03:38:56.988Z,-2.85
2023-12-02T03:43:59.367Z,-2.87
2023-12-02T03:49:01.331Z,-2.97
2023-12-02T03:54:04.247Z,-2.94
2023-12-02T03:59:05.755Z,-3.00
2023-12-02T04:04:07.306Z,-3.04
2023-12-02T04:09:10.150Z,-3.09
2023-12-02T04:14:11.757Z,-3.12
2023-12-02T04:19:13.445Z,-3.16
2023-12-02T04:24:16.375Z,-3.24
2023-12-02T04:29:17.912Z,-3.29
2023-12-02T04:34:19.577Z,-3.34
2023-12-02T04:39:22.564Z,-3.35
2023-12-02T04:44:24.510Z,-3.35
2023-12-02T04:49:26.175Z,-3.42
2023-12-02T04:54:29.198Z,-3.43
2023-12-02T04:59:30.762Z,-3.45
2023-12-02T05:04:32.476Z,-3.47
2023-12-02T05:09:37.295Z,-3.59
2023-12-02T05:14:39.160Z,-3.59
2023-12-02T05:19:40.732Z,-3.66
2023-12-02T05:24:43.709Z,-3.65
2023-12-02T05:29:45.263Z,-3.69
2023-12-02T05:34:46.896Z,-3.72
2023-12-02T05:39:49.767Z,-3.73
2023-12-02T05:44:51.306Z,-3.66
2023-12-02T05:49:52.842Z,-3.70
2023-12-02T05:54:56.132Z,-3.73
2023-12-02T05:59:57.702Z,-3.75
2023-12-02T06:04:59.343Z,-3.75
2023-12-02T06:10:02.264Z,-3.81
2023-12-02T06:15:04.887Z,-3.75
2023-12-02T06:20:07.741Z,-3.81
2023-12-02T06:25:10.755Z,-3.78
2023-12-02T06:30:14.868Z,-3.78
2023-12-02T06:35:16.555Z,-3.84
2023-12-02T06:40:19.530Z,-3.82
2023-12-02T06:45:21.118Z,-3.79
2023-12-02T06:50:22.682Z,-3.77
2023-12-02T07:00:30.081Z,-3.80
2023-12-02T07:05:31.697Z,-3.74
2023-12-02T07:10:35.655Z,-3.74
2023-12-02T07:15:38.308Z,-3.76
2023-12-02T07:20:41.490Z,-3.72
2023-12-02T07:25:44.428Z,-3.76
2023-12-02T07:30:46.021Z,-3.76
2023-12-02T07:35:47.616Z,-3.75
2023-12-02T07:40:50.564Z,-3.74
2023-12-02T07:45:52.177Z,-3.70
2023-12-02T07:50:53.737Z,-3.76
2023-12-02T07:55:56.678Z,-3.78
2023-12-02T08:00:58.200Z,-3.77
2023-12-02T08:05:59.852Z,-3.78
2023-12-02T08:11:02.796Z,-3.73
2023-12-02T08:16:05.022Z,-3.70
2023-12-02T08:21:07.579Z,-3.79
2023-12-02T08:26:10.496Z,-3.83
2023-12-02T08:31:12.120Z,-3.82
2023-12-02T08:36:13.720Z,-3.85
2023-12-02T08:41:16.650Z,-3.84
2023-12-02T08:46:19.215Z,-3.79
2023-12-02T08:51:20.826Z,-3.79
2023-12-02T08:56:23.823Z,-3.79
2023-12-02T09:01:25.547Z,-3.69
2023-12-02T09:06:27.279Z,-3.70
2023-12-02T09:11:30.778Z,-3.70
2023-12-02T09:16:32.469Z,-3.64
2023-12-02T09:21:51.740Z,-3.52
2023-12-02T09:26:54.722Z,-3.57
2023-12-02T09:31:56.634Z,-3.47
2023-12-02T09:36:58.268Z,-3.51
2023-12-02T09:42:04.935Z,-3.46
2023-12-02T09:47:15.534Z,-3.56
2023-12-02T09:52:28.948Z,-3.71
2023-12-02T09:57:38.507Z,-3.71
2023-12-02T10:03:10.175Z,-3.73
2023-12-02T10:08:26.077Z,-3.77
2023-12-02T10:13:43.129Z,-3.66
2023-12-02T10:18:54.131Z,-3.84
2023-12-02T10:23:58.196Z,-3.85
2023-12-02T10:29:12.904Z,-3.79
2023-12-02T10:34:22.459Z,-3.72
2023-12-02T10:39:35.665Z,-3.70
2023-12-02T10:44:40.819Z,-3.71
2023-12-02T10:49:43.676Z,-3.60
2023-12-02T10:54:52.636Z,-3.73
2023-12-02T11:00:04.309Z,-3.80
2023-12-02T11:05:19.720Z,-3.88
2023-12-02T11:10:43.476Z,-3.73
2023-12-02T11:16:14.178Z,-3.73
2023-12-02T11:21:25.822Z,-3.89
2023-12-02T11:26:33.534Z,-3.90
2023-12-02T11:31:56.110Z,-3.97
2023-12-02T11:37:08.720Z,-4.00
2023-12-02T11:42:17.108Z,-4.07
2023-12-02T11:47:33.036Z,-4.12
2023-12-02T11:52:47.979Z,-4.11
2023-12-02T11:57:59.714Z,-4.18
2023-12-02T12:03:22.556Z,-4.24
2023-12-02T12:08:34.392Z,-4.26
2023-12-02T12:13:36.671Z,-4.14
2023-12-02T12:18:39.637Z,-4.20
2023-12-02T12:23:41.191Z,-4.40
2023-12-02T12:28:42.744Z,-4.43
2023-12-02T12:33:50.829Z,-4.29
2023-12-02T12:38:54.744Z,-4.38
2023-12-02T12:43:57.864Z,-4.37
2023-12-02T12:49:04.713Z,-4.41
2023-12-02T12:54:06.971Z,-4.47
2023-12-02T12:59:10.214Z,-4.42
2023-12-02T13:04:25.263Z,-4.45
2023-12-02T13:09:31.480Z,-4.55
2023-12-02T13:14:39.945Z,-4.51
2023-12-02T13:19:45.295Z,-4.47
2023-12-02T13:24:54.453Z,-4.59
2023-12-02T13:30:01.066Z,-4.70
2023-12-02T13:35:06.227Z,-4.57
2023-12-02T13:40:11.261Z,-4.64
2023-12-02T13:45:17.663Z,-4.73
2023-12-02T13:50:26.686Z,-4.78
2023-12-02T13:55:46.819Z,-4.81
2023-12-02T14:00:59.099Z,-4.79
2023-12-02T14:06:08.492Z,-4.84
2023-12-02T14:11:14.984Z,-4.79
2023-12-02T14:16:38.528Z,-4.80
2023-12-02T14:21:58.458Z,-4.93
2023-12-02T14:27:27.319Z,-4.94
2023-12-02T14:32:43.055Z,-5.00
2023-12-02T14:38:08.060Z,-5.02
2023-12-02T14:43:27.818Z,-5.00
2023-12-02T14:48:30.246Z,-5.03
2023-12-02T14:53:36.909Z,-5.11
2023-12-02T14:58:39.091Z,-5.13
2023-12-02T15:03:43.284Z,-5.21
2023-12-02T15:08:46.917Z,-5.21
2023-12-02T15:13:49.697Z,-5.22
2023-12-02T15:18:52.922Z,-5.32
2023-12-02T15:23:55.931Z,-5.28
2023-12-02T15:29:01.459Z,-5.36
2023-12-02T15:34:03.304Z,-5.29
2023-12-02T15:39:09.440Z,-5.28
2023-12-02T15:44:11.089Z,-5.20
2023-12-02T15:49:12.704Z,-5.23
2023-12-02T15:54:16.010Z,-5.24
2023-12-02T15:59:20.194Z,-5.34
2023-12-02T16:04:22.128Z,-5.38
2023-12-02T16:09:25.310Z,-5.41
2023-12-02T16:14:27.574Z,-5.52
2023-12-02T16:19:29.692Z,-5.62
2023-12-02T16:24:32.965Z,-5.64
2023-12-02T16:29:35.401Z,-5.66
2023-12-02T16:34:37.196Z,-5.73
2023-12-02T16:39:40.896Z,-5.76
2023-12-02T16:44:43.026Z,-5.80
2023-12-02T16:49:44.640Z,-5.76
2023-12-02T16:54:47.620Z,-5.84
2023-12-02T16:59:49.801Z,-5.88
2023-12-02T17:04:51.564Z,-5.99
2023-12-02T17:09:54.659Z,-6.02
2023-12-02T17:15:05.656Z,-6.03
2023-12-02T17:20:14.047Z,-6.01
2023-12-02T17:25:45.974Z,-6.11
2023-12-02T17:30:47.532Z,-6.18
2023-12-02T17:35:49.117Z,-6.32
2023-12-02T17:40:52.054Z,-6.38
2023-12-02T17:45:53.698Z,-6.44
2023-12-02T17:50:55.288Z,-6.44
2023-12-02T17:55:58.225Z,-6.45
2023-12-02T18:00:59.807Z,-6.48
2023-12-02T18:06:01.584Z,-6.47
2023-12-02T18:11:04.816Z,-6.43
2023-12-02T18:16:07.213Z,-6.41
2023-12-02T18:21:08.905Z,-6.31
2023-12-02T18:26:11.973Z,-6.31
2023-12-02T18:31:13.494Z,-6.27
2023-12-02T18:36:15.114Z,-6.22
2023-12-02T18:41:18.062Z,-6.24
2023-12-02T18:46:19.613Z,-6.13
2023-12-02T18:51:21.152Z,-6.22
2023-12-02T18:56:24.029Z,-6.26
2023-12-02T19:01:25.811Z,-6.25
2023-12-02T19:06:27.642Z,-6.32
2023-12-02T19:11:30.679Z,-6.32
2023-12-02T19:16:32.322Z,-6.29
2023-12-02T19:21:33.939Z,-6.31
2023-12-02T19:26:36.839Z,-6.40
2023-12-02T19:31:38.471Z,-6.43
2023-12-02T19:36:40.166Z,-6.43
2023-12-02T19:41:46.079Z,-6.42
2023-12-02T19:46:48.444Z,-6.30
2023-12-02T19:51:50.049Z,-6.22
2023-12-02T19:56:53.130Z,-6.12
2023-12-02T20:01:54.804Z,-6.04
2023-12-02T20:06:56.364Z,-5.85
2023-12-02T20:11:59.348Z,-5.71
2023-12-02T20:17:00.972Z,-5.65
2023-12-02T20:22:02.867Z,-5.64
2023-12-02T20:27:05.965Z,-5.52
2023-12-02T20:32:07.559Z,-5.52
2023-12-02T20:37:09.273Z,-5.71
2023-12-02T20:42:12.301Z,-5.95
2023-12-02T20:47:13.936Z,-6.03
2023-12-02T20:52:15.487Z,-6.20
2023-12-02T20:57:18.439Z,-6.24
2023-12-02T21:02:20.198Z,-6.22
2023-12-02T21:07:21.833Z,-6.27
2023-12-02T21:12:26.225Z,-6.45
2023-12-02T21:17:28.989Z,-6.57
2023-12-02T21:22:30.713Z,-6.53
2023-12-02T21:27:33.838Z,-6.58
2023-12-02T21:32:35.454Z,-6.42
2023-12-02T21:37:37.081Z,-6.55
2023-12-02T21:42:40.066Z,-6.58
2023-12-02T21:47:41.695Z,-6.73
2023-12-02T21:52:43.234Z,-6.78
2023-12-02T21:57:47.429Z,-6.74
2023-12-02T22:02:49.116Z,-6.68
2023-12-02T22:07:50.827Z,-6.64
2023-12-02T22:12:54.080Z,-6.72
2023-12-02T22:17:56.059Z,-6.76
2023-12-02T22:22:59.766Z,-6.74
2023-12-02T22:28:04.840Z,-6.63
2023-12-02T22:33:06.817Z,-6.43
2023-12-02T22:38:17.285Z,-6.34
2023-12-02T22:43:21.600Z,-6.23
2023-12-02T22:48:36.160Z,-6.17
2023-12-02T22:53:39.447Z,-6.07
2023-12-02T22:58:44.493Z,-6.03
2023-12-02T23:03:46.349Z,-5.93
2023-12-02T23:08:48.099Z,-5.82
2023-12-02T23:13:51.135Z,-5.79
2023-12-02T23:18:52.759Z,-5.83
2023-12-02T23:23:54.344Z,-5.70
2023-12-02T23:28:57.500Z,-5.64
2023-12-02T23:33:59.192Z,-5.58
2023-12-02T23:39:01.325Z,-5.53
2023-12-02T23:44:08.842Z,-5.51
2023-12-02T23:49:10.464Z,-5.47
2023-12-02T23:54:12.187Z,-5.42
2023-12-02T23:59:15.358Z,-5.43
